Weather at Montgomery County Airpark

Public forecast

Using degrees Fahrenheit for public forecast. Weather courtesy of forecast.io.

Current aviation weather report (METAR) for Montgomery County Airpark

Retrieved 2021/05/10 21:56 UTC (23 minutes ago):

KGAI 102156Z AUTO 30012G19KT 10SM CLR 17/04 A2999 RMK AO2 SLP167 T01670039

Closest aviation forecast (TAF) to Montgomery County Airpark

Closest forecast is Washington Dulles International Airport, 19.1 nm (35.3 km) SW. Retrieved 2021/05/10 18:39 UTC (4 hours ago):

TAF KIAD 101737Z 1018/1124 34011G18KT P6SM FEW040 SCT250 FM102200 33010KT P6SM FEW250 FM110500 34004KT P6SM BKN200 FM111500 30008KT P6SM SCT050 FM111800 29010G19KT P6SM BKN050